Delta, Canada
Current Conditions -  °F | °C
As of 4:00 AM on Friday 28 Nov 2014 (Local Time) from CYVR Reporting Station
Light Rain Light Rain  
Wind Chill: 35°   Ceiling: 3000
Heat Index: 45°   Visibility: 12mi
Dew Point: 41°   Wind: 28mph
Humidity: 87%   Direction: 280°W
Pressure: 29.51"   Gusts: 36mph
Location:  49.09°N, 123.06°W
Report Text: CYVR 281200Z 28024G31KT 12SM -RA OVC030 07/05 A2951 RMK SC8 SLP994
Loading
Personal Weather Stations






























Interactive Weather Map New forecast layout! Learn more

10-Day Weather Forecast

Advertisements
Track Severe Weather on mobile